Aktualne dane pomiarowe

Uwaga, wersja testowa! Automatyczne pobieranie danych za pomocą narzędzi lub skryptów to umożliwiających jest zabronione.

Dane meteo z obszaru Polski uzyskane na podstawie depesz SYNOP pobieranych co godzinę z NWS. Najedź myszką na symbol przedstawiony w tabeli, aby uzyskać informacje co do jego znaczenia. Prosimy pamiętać, że to testowa wersja strony, która jeszcze nie jest ukończona. Stworzono również jest krótki FAQ dotyczący korzystania z tej podstrony Anomalie temperatury w chwili obecnej odniesione są do okresu referencyjnego 1951-2016. Okres ten będzie później zmieniony na 1981-2010. Kliknij ikonę aby pobrać plik CSV. Kliknij ikonę aby wygenerować mapę synoptyczną dla danego terminu.

Wybierz Datę:    

        

Inowrocław (12342)

Dane terminowe dla wybranej stacji. Kliknij datę, aby otrzymać dane z tego terminu dla wszystkich stacji.

TemperaturaZachmurzenieWiatrCiśnienieOpadyPogoda
 Data t td wb tx tn tg rh  Nt Nl Cl Cm Ch ws wd g1 g2 wx mslp ppp ch 24h 12h t ww ww w1 w2  
2019-08-08 23:00:00 15.2 14.2 14.5--- 9410.0wx-wx1wx---1011.91001.3 0.1---------
2019-08-08 22:00:00 15.2 14.3 14.5--- 9410.0wx-wx3wx---1011.91001.3 2.0---------
2019-08-08 21:00:00 16.2 14.2 14.8--- 8810.0wx-wx2wx---1010.91001.0 1.8---------
2019-08-08 20:00:00 17.9 12.6 14.5--- 7110.0wxwxwxwx8wx---1011.11001.2 2.1---wx-w1w2--
2019-08-08 19:00:00 21.5 11.8 15.5--- 5410.0wxwxwx3wx---1008.9 999.3 0.0---------
2019-08-08 18:00:00 23.4 11.2 16.1--- 4610.0wxwxwx4wx---1008.9 999.2 -0.1---------
2019-08-08 17:00:00 24.5 10.8 16.3--- 4210.0wxwxwx6wx---1008.8 999.2 -0.1---------
2019-08-08 16:00:00 25.2 10.7 16.6--- 4010.0wxwxwx6wx---1008.8 999.2 0.0---------
2019-08-08 15:00:00 25.3 11.1 16.8--- 4110.0wxwxwx6wx---1008.9 999.3 -0.4---------
2019-08-08 14:00:00 25.0 10.5 16.4--- 4010.0wxwxwxwx4wx---1008.9 999.3 -0.4---------
2019-08-08 13:00:00 25.4 10.5 16.6--- 3910.0wxwxwx7wx---1008.9 999.3 -0.1---------
2019-08-08 12:00:00 24.6 11.2 16.6--- 4310.0wxwxwx7wx---1009.4 999.7 0.5---------
2019-08-08 11:00:00 23.9 12.3 16.8--- 4810.0wxwxwx7wx---1009.4 999.7 1.0---------
2019-08-08 10:00:00 23.3 12.3 16.5--- 5010.0wxwxwx8wx---1009.1 999.4 1.1---------
2019-08-08 09:00:00 22.1 12.4 16.1--- 5410.0wxwxwx8wx---1008.9 999.2 1.7---------
2019-08-08 08:00:00 20.9 13.9 16.4--- 6410.0wxwxwx9wx---1008.4 998.7 1.9---------
2019-08-08 07:00:00 19.2 15.1 16.4--- 7710.0wxwxwx7wx---1008.1 998.3 2.1---------
2019-08-08 06:00:00 18.6 15.7 16.6--- 8310.0wxwxwx7wx---1007.3 997.5 2.0---------
2019-08-08 05:00:00 17.7 16.2 16.6--- 9110.0wxwxwx7wx---1006.6 996.8 1.5---------
2019-08-08 04:00:00 17.5 16.4 16.7--- 9310.0wxwxwxwx8wx---1006.2 996.1 1.0---------
2019-08-08 03:00:00 17.9 17.1 17.3--- 9510.0wx-wx6wx---1005.6 995.6 0.4---------
2019-08-08 02:00:00 18.1 17.6 17.7--- 9710.0wx-wx4wx---1005.4 995.3 -0.2---------
2019-08-08 01:00:00 17.9 17.6 17.7--- 9810.0wxwxwxwx5wx---1005.1 995.1 -0.6---wx-w1--
2019-08-08 00:00:00 17.9 17.6 17.7--- 988.0wxwxwxwx3wx---1005.0 995.1 -0.2---wx-w1w2--
2019-08-07 23:00:00 18.0 17.5 17.6--- 974.0wxwxwxwx4wx---1005.5 995.5 0.4---wx-w1w2--
2019-08-07 22:00:00 18.4 17.9 18.0--- 974.0wxwxwxwx4wx---1005.6 995.6 0.3---wx-w1--
2019-08-07 21:00:00 18.4 17.8 18.0--- 968.0wxwxwxwx3wx---1005.3 995.3 -0.3---wx---
2019-08-07 20:00:00 18.4 17.8 18.0--- 9610.0wx-wx1----1005.1 995.1 0.2---wx---
2019-08-07 19:00:00 18.4 17.6 17.8--- 956.0wxwxwxwx3wx---1005.4 995.3 0.5---wx-w1--
2019-08-07 18:00:00 19.1 17.6 18.0--- 913.0wxwxwx7wx18--1005.6 995.6 0.2---wx-w1--
2019-08-07 17:00:00 25.5 14.0 18.3--- 4910.0wx-wx4wx---1004.6 994.8 -1.1---------
2019-08-07 16:00:00 26.3 14.1 18.6--- 4710.0wxwxwxwx6wx---1004.5 994.7 -1.7---------
2019-08-07 15:00:00 27.1 13.8 18.8--- 4410.0wxwxwxwx6wx---1005.1 995.4 -1.6---------
2019-08-07 14:00:00 26.6 13.4 18.4--- 4410.0wxwxwxwx5wx---1005.6 995.9 -1.7---------
2019-08-07 13:00:00 27.2 13.2 18.6--- 4210.0wxwxwxwx5wx---1006.1 996.4 -1.5---------
2019-08-07 12:00:00 26.9 13.3 18.5--- 4310.0wxwxwxwx5wx---1006.7 997.0 -0.8---------
2019-08-07 11:00:00 26.3 13.8 18.5--- 4610.0wxwxwxwx4wx---1007.4 997.6 -0.4---------
2019-08-07 10:00:00 25.7 13.8 18.3--- 4810.0wxwxwxwx2wx---1008.0 997.9 -0.2---------
2019-08-07 09:00:00 24.3 14.7 18.2--- 5510.0wx-wx1wx---1007.6 997.8 -0.1---------
2019-08-07 08:00:00 22.7 15.8 18.1--- 6510.0wx-wx1wx---1007.9 998.0 -0.1---------
2019-08-07 07:00:00 20.8 16.4 17.8--- 7610.0wxwxwxwx3wx---1008.0 998.1 0.3---------
2019-08-07 06:00:00 19.4 17.7 18.2--- 9010.0wx-2wx---1007.9 997.9 0.3---------
2019-08-07 05:00:00 17.5 17.3 17.3--- 993.0wx-wx2wx---1008.2 998.3 0.3---wx---
2019-08-07 04:00:00 17.1 16.8 16.9--- 981.0wx-wxwx1----1007.9 998.0 -0.3---wx---
2019-08-07 03:00:00 17.1 16.8 16.9--- 981.0wx-wx1----1007.7 997.8 -0.8---------
2019-08-07 02:00:00 17.8 17.0 17.2--- 9510.0wx-wxwx1----1008.0 998.1 -0.1---------
2019-08-07 01:00:00 18.1 17.3 17.5--- 9510.0wxwxwxwx2wx---1008.2 998.3 -0.2---wx-w1w2--
2019-08-07 00:00:00 18.8 16.6 17.2--- 8710.0wxwxwxwxwx6wx13--1008.5 998.6 0.4---wx-w1--
11.1 ms

 

Print Friendly, PDF & Email